4NK6 weather

Ag-Alley Airport
Marion, New York, United States

Public forecast

Using degrees Fahrenheit for public forecast. Weather courtesy of forecast.io.

Closest aviation weather report (METAR) to Ag-Alley Airport

Closest report is Greater Rochester International Airport, 21.8 nm (40.4 km) W. Retrieved 2019/12/12 01:54 UTC (1 hour ago):

KROC 120154Z 29011G20KT 10SM SCT040 M07/M13 A3045 RMK AO2 PK WND 28027/0055 SLP324 T10671133

Closest aviation forecast (TAF) to Ag-Alley Airport

Closest forecast is Greater Rochester International Airport, 21.8 nm (40.4 km) W. Retrieved 2019-12-12 00:39 UTC (2 hours ago):

TAF KROC 112337Z 1200/1224 27015G23KT P6SM -SHSN SCT050 SCT090 FM120300 26011G17KT P6SM SKC FM120800 24008KT P6SM SKC FM121700 19005KT P6SM BKN200